Strona główna
METAR-TAF:

METAR-TAF

Lotnisko :

Port lotniczy Damaszek

Damaszek, Syria

Szerokość geograficzna: 33-25N, Długość geograficzna: 036-31E, wysokość: 608 m

Aktualna obserwacja pogody

Raport powstał 15 minut temu, godzina 04:00 UTC
Wiatr 8 kt od południowo-południowy zachód
Temperatura 17°C
Wilgotność 77%
Ciśnienie 1012 hPa
Widzialność 10 km lub więcej
Brak chmur poniżej 1500 m i brak chmur cumulonimbus

METAR: OSDI 150400Z 21008KT CAVOK 17/13 Q1012

czas: 07:15 (04:15 UTC)

Prognoza

Raport powstał 6 godziny i 15 minut temu, godzina 22:00 UTC
Prognoza ważna od 15 godzina 00 UTC do 16 godzina 06 UTC
Wiatr 15 kt od zachód
Widzialność 10 km lub więcej
Brak chmur poniżej 1500 m i brak chmur cumulonimbus
Przejściowo
od 15 godzina 09 UTC do 15 godzina 18 UTC
Wiatr 15 kt od południowo-południowy zachód w porywach dochodzący do 25 kt
Widzialność: 8000 m
Mało chmury na wysokości 3000 ft

TAF: OSDI 142200Z 1500/1606 26015KT CAVOK TEMPO 1509/1518 20015G25KT 8000 FEW030

Obserwacja i prognoza pogody dla ponad 4000 lotnisk (raport METAR i TAF).

Dostępne stacje oznaczono żółtymi i czerwonymi punktami na mapie.

Najedź kursorem aby zobaczyć nazwę stacji.

Kliknij aby zobaczyć obserwacje i prognozy pogody.

Aby zmienić mapę: kliknij na zielony przycisk z czarnym krzyżykiem, aby powiększyć; na zielony przycisk z myślnikiem, aby pomniejszyć; na zielone strzałki, aby przejść do map sąsiednich.


METAR-TAF: